KOGA

Searle Field Airport

Ogallala, Nebraska, USA
METAR KOGA 220215Z AUTO 01005KT 10SM CLR 19/14 A2993 RMK AO2 T01880140
Observed Flight Rules
May-22 @ 02:15 UTC (23 minutes ago) Visual Flight Rules
Wind Visibility Clouds
10° at 5 knots 10 miles
  • Clear skies
Temperatures Readings
Current 19°C / 66°F
Dewpoint 14°C / 57°F
Humidity 73%
Altimeter 29.93" Hg
Pressure 1014 hPa
Elevation 999
METAR KOGA 220215Z AUTO 01005KT 10SM CLR 19/14 A2993 RMK AO2 T01880140
Observed Flight Rules
May-22 @ 02:15 UTC
(23 minutes ago)
VFR
Wind Visibility
10° at 5 knots 10 miles
Clouds
  • Clear skies
Temperature Dewpoint
19°C / 66°F 14°C / 57°F
Humidity Altimeter Pressure
73% 29.93" Hg 1014 hPa